Terminal Aerodrome Forecast
Issued by NWS Northern Indiana

Home | Current Version | Previous Version | Text Only | Print | Product List | Glossary Off
Versions: 1 2 3 4 5 6 7 8 9 10 11 12 13 14 15 16 17 18 19 20

000
FTUS43 KIWX 200539
TAFFWA
TAF
KFWA 200539Z 2006/2106 07011KT P6SM SCT015 OVC022
      TEMPO 2006/2010 OVC015
     FM201700 09012G18KT 6SM -SHRA BR VCTS OVC015CB
     FM202200 10011KT 6SM -SHRA BR SCT025 OVC035
     FM210400 14008KT 6SM SHRA VCTS SCT020 OVC035CB=

USA.gov is the U.S. government's official web portal to all federal, state and local government web resources and services.